createdAt,value
2016-08-02T00:08:16.281Z,37.2
2016-08-02T00:19:16.291Z,37.9
2016-08-02T00:30:16.238Z,39.5
2016-08-02T00:41:16.396Z,42.2
2016-08-02T00:52:16.220Z,42.6
2016-08-02T01:03:17.972Z,42.9
2016-08-02T01:14:16.439Z,43.5
2016-08-02T01:25:16.411Z,44.7
2016-08-02T01:36:16.743Z,45.3
2016-08-02T01:47:16.764Z,45.8
2016-08-02T01:58:22.158Z,43
2016-08-02T02:09:17.139Z,42.8
2016-08-02T02:20:17.279Z,43.3
2016-08-02T02:31:16.858Z,42.7
2016-08-02T02:42:17.100Z,42.3
2016-08-02T02:53:16.566Z,40.8
2016-08-02T03:04:16.947Z,40.2
2016-08-02T03:15:16.295Z,40
2016-08-02T03:26:22.162Z,40.3
2016-08-02T03:37:22.517Z,39.4
2016-08-02T03:48:16.854Z,39.1
2016-08-02T03:59:17.039Z,39
2016-08-02T04:10:17.151Z,39.2
2016-08-02T04:21:17.465Z,38.2
2016-08-02T04:32:16.939Z,38.3
2016-08-02T04:43:16.199Z,37.6
2016-08-02T04:54:16.479Z,37.3
2016-08-02T05:05:16.592Z,41.5
2016-08-02T05:16:17.081Z,42.1
2016-08-02T05:27:16.350Z,43.3
2016-08-02T05:38:16.417Z,43.2
2016-08-02T05:49:16.708Z,44.4
2016-08-02T06:00:17.174Z,45.3
2016-08-02T06:11:16.242Z,46.2
2016-08-02T06:22:16.088Z,44.1
2016-08-02T06:33:17.064Z,43.8
2016-08-02T06:44:17.144Z,43.6
2016-08-02T06:55:16.907Z,44.2
2016-08-02T07:06:16.715Z,43.4
2016-08-02T07:17:16.670Z,43
2016-08-02T07:28:16.390Z,41.9
2016-08-02T07:39:16.891Z,41.6
2016-08-02T07:50:16.908Z,42
2016-08-02T08:01:16.069Z,41.5
2016-08-02T08:12:16.398Z,40.5
2016-08-02T08:23:16.105Z,40.2
2016-08-02T08:34:21.152Z,39.9
2016-08-02T08:45:16.523Z,39.2
2016-08-02T08:56:16.214Z,42
2016-08-02T09:07:17.067Z,44.5
2016-08-02T09:18:16.621Z,45.7
2016-08-02T09:29:16.566Z,45.7
2016-08-02T09:40:17.566Z,46.6
2016-08-02T09:51:16.596Z,47.3
2016-08-02T10:02:16.389Z,48.2
2016-08-02T10:13:17.341Z,48.8
2016-08-02T10:24:21.461Z,45.6
2016-08-02T10:35:16.472Z,45.2
2016-08-02T10:46:17.100Z,45.6
2016-08-02T10:57:16.837Z,45.8
2016-08-02T11:08:16.544Z,44.6
2016-08-02T11:19:16.657Z,44.4
2016-08-02T11:30:17.277Z,43.7
2016-08-02T11:41:21.158Z,44
2016-08-02T11:52:16.411Z,43.7
2016-08-02T12:03:15.995Z,42.7
2016-08-02T12:14:16.449Z,42.3
2016-08-02T12:25:17.240Z,41.6
2016-08-02T12:36:21.296Z,41.7
2016-08-02T12:47:21.965Z,41.3
2016-08-02T12:58:16.460Z,44.8
2016-08-02T13:09:16.307Z,44.7
2016-08-02T13:20:16.789Z,44.7
2016-08-02T13:31:16.464Z,44.7
2016-08-02T13:42:16.536Z,45.8
2016-08-02T13:53:16.889Z,46.3
2016-08-02T14:04:17.155Z,47
2016-08-02T14:15:16.614Z,47.2
2016-08-02T14:26:16.812Z,48.1
2016-08-02T14:37:16.367Z,48.4
2016-08-02T14:48:17.965Z,48.5
2016-08-02T14:59:17.150Z,48.8
2016-08-02T15:10:21.777Z,46.6
2016-08-02T15:21:16.278Z,46.3
2016-08-02T15:32:22.491Z,46.4
2016-08-02T15:43:16.497Z,46.7
2016-08-02T15:54:16.232Z,45.2
2016-08-02T16:05:16.240Z,44.4
2016-08-02T16:16:16.970Z,44.2
2016-08-02T16:27:16.487Z,43.5
2016-08-02T16:38:16.319Z,43.5
2016-08-02T16:49:16.371Z,42.8
2016-08-02T17:00:16.997Z,42.8
2016-08-02T17:11:16.179Z,42
2016-08-02T17:22:16.616Z,42.1
2016-08-02T17:33:16.400Z,41.5
2016-08-02T17:44:16.579Z,41.3
2016-08-02T17:55:16.928Z,40.2
2016-08-02T18:06:17.843Z,40.7
2016-08-02T18:17:17.294Z,39.2
2016-08-02T18:28:21.289Z,43.1
2016-08-02T18:39:21.909Z,43.7
2016-08-02T18:50:16.469Z,44.1
2016-08-02T19:01:16.589Z,43.8
2016-08-02T19:12:16.915Z,45
2016-08-02T19:23:16.446Z,46.1
2016-08-02T19:34:16.268Z,46.6
2016-08-02T19:45:17.530Z,47
2016-08-02T19:56:17.036Z,47.3
2016-08-02T20:07:16.978Z,47.8
2016-08-02T20:18:16.257Z,48.4
2016-08-02T20:29:17.274Z,47.7
2016-08-02T20:40:17.003Z,46.1
2016-08-02T20:51:16.939Z,46.5
2016-08-02T21:02:17.035Z,46.3
2016-08-02T21:13:16.746Z,46.2
2016-08-02T21:24:16.653Z,45.5
2016-08-02T21:35:16.346Z,44.3
2016-08-02T21:46:16.273Z,44.7
2016-08-02T21:57:17.118Z,43.9
2016-08-02T22:08:21.336Z,43.8
2016-08-02T22:19:16.048Z,43.2
2016-08-02T22:30:16.855Z,42.7
2016-08-02T22:41:16.256Z,44.5
2016-08-02T22:52:17.587Z,45.6
2016-08-02T23:03:16.694Z,45.4
2016-08-02T23:14:16.986Z,45.6
2016-08-02T23:25:16.215Z,46.2
2016-08-02T23:36:16.154Z,46.3
2016-08-02T23:47:16.918Z,47.3
2016-08-02T23:58:17.028Z,47.4
